DL2110 KDCA-KPHL
Flight info
| Callsign | DL2110 |
|---|---|
| Flight time | 0h 26m |
| Altitude | 15000 |
| Route | DOCTR5 DQO DCT |
| Aircraft | A320/M-V/N |
Departure
| Time | 2026-04-25 19:59 |
|---|---|
| Airport | Ronald Reagan Washington National Airport (KDCA) |
Arrival
| Time | 2026-04-25 20:25 |
|---|---|
| Airport | Philadelphia International Airport (KPHL) |
| Time | Latitude | Longitude | Altitude | Speed | Heading |
|---|---|---|---|---|---|
| 2026-04-25 19:24 | 38.85233 | -77.04196 | 26 ft | 0 kts | 160° |
| 2026-04-25 19:40 | 38.85232 | -77.04196 | 26 ft | 0 kts | 160° |
| 2026-04-25 19:48 | 38.85237 | -77.04198 | 26 ft | 2 kts | 174° |
| 2026-04-25 19:48 | 38.85252 | -77.04198 | 26 ft | 2 kts | 177° |
| 2026-04-25 19:49 | 38.85267 | -77.04200 | 26 ft | 2 kts | 177° |
| 2026-04-25 19:49 | 38.85277 | -77.04200 | 26 ft | 2 kts | 177° |
| 2026-04-25 19:49 | 38.85287 | -77.04201 | 26 ft | 0 kts | 167° |
| 2026-04-25 19:49 | 38.85291 | -77.04203 | 26 ft | 0 kts | 109° |
| 2026-04-25 19:50 | 38.85289 | -77.04217 | 26 ft | 0 kts | 71° |
| 2026-04-25 19:50 | 38.85289 | -77.04216 | 26 ft | 0 kts | 72° |
| 2026-04-25 19:52 | 38.85290 | -77.04215 | 26 ft | 1 kts | 71° |
| 2026-04-25 19:53 | 38.85310 | -77.04135 | 24 ft | 11 kts | 72° |
| 2026-04-25 19:54 | 38.85326 | -77.04067 | 23 ft | 12 kts | 77° |
| 2026-04-25 19:54 | 38.85292 | -77.03921 | 20 ft | 14 kts | 148° |
| 2026-04-25 19:54 | 38.85227 | -77.03912 | 20 ft | 14 kts | 180° |
| 2026-04-25 19:54 | 38.85160 | -77.03915 | 20 ft | 14 kts | 180° |
| 2026-04-25 19:55 | 38.85028 | -77.03906 | 20 ft | 14 kts | 175° |
| 2026-04-25 19:55 | 38.84927 | -77.03893 | 19 ft | 14 kts | 175° |
| 2026-04-25 19:55 | 38.84825 | -77.03882 | 19 ft | 14 kts | 175° |
| 2026-04-25 19:55 | 38.84685 | -77.03868 | 19 ft | 15 kts | 176° |
| 2026-04-25 19:56 | 38.84574 | -77.03859 | 17 ft | 16 kts | 176° |
| 2026-04-25 19:56 | 38.84454 | -77.03848 | 15 ft | 17 kts | 176° |
| 2026-04-25 19:56 | 38.84374 | -77.03841 | 15 ft | 17 kts | 176° |
| 2026-04-25 19:56 | 38.84327 | -77.03836 | 15 ft | 0 kts | 174° |
| 2026-04-25 19:57 | 38.84296 | -77.03832 | 15 ft | 9 kts | 174° |
| 2026-04-25 19:57 | 38.84228 | -77.03815 | 14 ft | 10 kts | 150° |
| 2026-04-25 19:57 | 38.84198 | -77.03734 | 13 ft | 11 kts | 68° |
| 2026-04-25 19:57 | 38.84260 | -77.03687 | 14 ft | 10 kts | 5° |
| 2026-04-25 19:58 | 38.84359 | -77.03687 | 15 ft | 34 kts | 356° |
| 2026-04-25 19:58 | 38.84860 | -77.03748 | 19 ft | 108 kts | 356° |
| 2026-04-25 19:58 | 38.86224 | -77.03863 | 99 ft | 175 kts | 356° |
| 2026-04-25 19:58 | 38.87024 | -77.03925 | 528 ft | 174 kts | 356° |
| 2026-04-25 19:59 | 38.88176 | -77.04233 | 1319 ft | 171 kts | 329° |
| 2026-04-25 19:59 | 38.89318 | -77.05643 | 2153 ft | 180 kts | 310° |
| 2026-04-25 19:59 | 38.89859 | -77.06489 | 2479 ft | 191 kts | 307° |
| 2026-04-25 19:59 | 38.90806 | -77.08544 | 3134 ft | 213 kts | 296° |
| 2026-04-25 20:00 | 38.91551 | -77.10270 | 3537 ft | 236 kts | 308° |
| 2026-04-25 20:00 | 38.91916 | -77.10829 | 3693 ft | 244 kts | 315° |
| 2026-04-25 20:00 | 38.93749 | -77.12651 | 4486 ft | 265 kts | 327° |
| 2026-04-25 20:00 | 38.95332 | -77.13857 | 5340 ft | 270 kts | 332° |
| 2026-04-25 20:01 | 38.99546 | -77.14568 | 7376 ft | 278 kts | 26° |
| 2026-04-25 20:01 | 39.00621 | -77.13700 | 7950 ft | 279 kts | 38° |
| 2026-04-25 20:01 | 39.02611 | -77.11593 | 9044 ft | 284 kts | 44° |
| 2026-04-25 20:02 | 39.03441 | -77.10289 | 9543 ft | 287 kts | 60° |
| 2026-04-25 20:02 | 39.04039 | -77.07842 | 10322 ft | 290 kts | 87° |
| 2026-04-25 20:02 | 39.03949 | -77.05209 | 10865 ft | 303 kts | 95° |
| 2026-04-25 20:02 | 39.03716 | -77.02420 | 11239 ft | 321 kts | 96° |
| 2026-04-25 20:03 | 39.03462 | -76.99476 | 11575 ft | 339 kts | 96° |
| 2026-04-25 20:03 | 39.03208 | -76.96389 | 11883 ft | 356 kts | 96° |
| 2026-04-25 20:03 | 39.02954 | -76.93167 | 12175 ft | 372 kts | 96° |
| 2026-04-25 20:03 | 39.02693 | -76.89745 | 12453 ft | 388 kts | 95° |
| 2026-04-25 20:04 | 39.02428 | -76.86242 | 12725 ft | 402 kts | 95° |
| 2026-04-25 20:04 | 39.02157 | -76.82623 | 13201 ft | 409 kts | 95° |
| 2026-04-25 20:04 | 39.01884 | -76.78977 | 13828 ft | 412 kts | 95° |
| 2026-04-25 20:04 | 39.01608 | -76.75311 | 14427 ft | 415 kts | 95° |
| 2026-04-25 20:05 | 39.01327 | -76.71607 | 14863 ft | 419 kts | 95° |
| 2026-04-25 20:05 | 39.01058 | -76.67897 | 14987 ft | 419 kts | 94° |
| 2026-04-25 20:05 | 39.00922 | -76.64142 | 14990 ft | 419 kts | 90° |
| 2026-04-25 20:05 | 39.00921 | -76.59158 | 14992 ft | 419 kts | 89° |
| 2026-04-25 20:06 | 39.00934 | -76.56659 | 14992 ft | 419 kts | 89° |
| 2026-04-25 20:06 | 39.00952 | -76.52902 | 14992 ft | 419 kts | 89° |
| 2026-04-25 20:06 | 39.00964 | -76.49181 | 14992 ft | 419 kts | 89° |
| 2026-04-25 20:06 | 39.01027 | -76.45412 | 14985 ft | 419 kts | 84° |
| 2026-04-25 20:07 | 39.01732 | -76.41837 | 14982 ft | 419 kts | 66° |
| 2026-04-25 20:07 | 39.03264 | -76.38671 | 14987 ft | 419 kts | 48° |
| 2026-04-25 20:07 | 39.05348 | -76.36014 | 14999 ft | 419 kts | 42° |
| 2026-04-25 20:07 | 39.07495 | -76.33488 | 14995 ft | 419 kts | 42° |
| 2026-04-25 20:08 | 39.09647 | -76.30975 | 14994 ft | 419 kts | 42° |
| 2026-04-25 20:08 | 39.11788 | -76.28458 | 14993 ft | 419 kts | 43° |
| 2026-04-25 20:08 | 39.13963 | -76.25884 | 14992 ft | 419 kts | 43° |
| 2026-04-25 20:08 | 39.16076 | -76.23368 | 14774 ft | 417 kts | 43° |
| 2026-04-25 20:09 | 39.18196 | -76.20836 | 14525 ft | 416 kts | 43° |
| 2026-04-25 20:09 | 39.20332 | -76.18278 | 14230 ft | 414 kts | 43° |
| 2026-04-25 20:09 | 39.22411 | -76.15784 | 13870 ft | 412 kts | 43° |
| 2026-04-25 20:09 | 39.24500 | -76.13273 | 13400 ft | 409 kts | 43° |
| 2026-04-25 20:10 | 39.26574 | -76.10779 | 12854 ft | 405 kts | 43° |
| 2026-04-25 20:10 | 39.28636 | -76.08297 | 12288 ft | 401 kts | 43° |
| 2026-04-25 20:10 | 39.30638 | -76.05883 | 11882 ft | 391 kts | 43° |
| 2026-04-25 20:10 | 39.32605 | -76.03510 | 11531 ft | 380 kts | 43° |
| 2026-04-25 20:11 | 39.34479 | -76.01248 | 11311 ft | 367 kts | 43° |
| 2026-04-25 20:11 | 39.36322 | -75.99020 | 11077 ft | 355 kts | 43° |
| 2026-04-25 20:11 | 39.38084 | -75.96890 | 10860 ft | 343 kts | 43° |
| 2026-04-25 20:11 | 39.40362 | -75.94133 | 10599 ft | 328 kts | 43° |
| 2026-04-25 20:12 | 39.41465 | -75.92798 | 10481 ft | 321 kts | 43° |
| 2026-04-25 20:12 | 39.43076 | -75.90845 | 10323 ft | 310 kts | 43° |
| 2026-04-25 20:12 | 39.44620 | -75.88972 | 10182 ft | 298 kts | 43° |
| 2026-04-25 20:12 | 39.45600 | -75.87783 | 10099 ft | 291 kts | 43° |
| 2026-04-25 20:13 | 39.47530 | -75.85440 | 9824 ft | 281 kts | 43° |
| 2026-04-25 20:13 | 39.48955 | -75.83708 | 9498 ft | 278 kts | 43° |
| 2026-04-25 20:13 | 39.50364 | -75.81997 | 9186 ft | 275 kts | 43° |
| 2026-04-25 20:13 | 39.51738 | -75.80325 | 8887 ft | 272 kts | 43° |
| 2026-04-25 20:14 | 39.53108 | -75.78660 | 8590 ft | 269 kts | 43° |
| 2026-04-25 20:14 | 39.54474 | -75.76997 | 8295 ft | 265 kts | 43° |
| 2026-04-25 20:14 | 39.55737 | -75.75458 | 8023 ft | 262 kts | 43° |
| 2026-04-25 20:14 | 39.57063 | -75.73842 | 7738 ft | 258 kts | 43° |
| 2026-04-25 20:15 | 39.58353 | -75.72269 | 7459 ft | 255 kts | 43° |
| 2026-04-25 20:15 | 39.59642 | -75.70697 | 7182 ft | 252 kts | 43° |
| 2026-04-25 20:15 | 39.60910 | -75.69150 | 6907 ft | 248 kts | 43° |
| 2026-04-25 20:15 | 39.62164 | -75.67618 | 6636 ft | 244 kts | 43° |
| 2026-04-25 20:16 | 39.63387 | -75.66123 | 6371 ft | 240 kts | 43° |
| 2026-04-25 20:16 | 39.64588 | -75.64655 | 6112 ft | 237 kts | 43° |
| 2026-04-25 20:16 | 39.65786 | -75.63191 | 5854 ft | 233 kts | 43° |
| 2026-04-25 20:16 | 39.66960 | -75.61783 | 5599 ft | 229 kts | 38° |
| 2026-04-25 20:17 | 39.68299 | -75.60650 | 5339 ft | 226 kts | 25° |
| 2026-04-25 20:17 | 39.70231 | -75.59755 | 5016 ft | 221 kts | 15° |
| 2026-04-25 20:17 | 39.71232 | -75.59392 | 4851 ft | 219 kts | 15° |
| 2026-04-25 20:17 | 39.72676 | -75.58881 | 4615 ft | 215 kts | 15° |
| 2026-04-25 20:18 | 39.74117 | -75.58366 | 4379 ft | 212 kts | 15° |
| 2026-04-25 20:18 | 39.75956 | -75.57695 | 4170 ft | 199 kts | 15° |
| 2026-04-25 20:18 | 39.76818 | -75.57378 | 4095 ft | 190 kts | 15° |
| 2026-04-25 20:18 | 39.78027 | -75.56931 | 4032 ft | 170 kts | 15° |
| 2026-04-25 20:19 | 39.79125 | -75.56525 | 3998 ft | 161 kts | 15° |
| 2026-04-25 20:19 | 39.80138 | -75.55957 | 3974 ft | 161 kts | 41° |
| 2026-04-25 20:19 | 39.80807 | -75.54791 | 3928 ft | 162 kts | 63° |
| 2026-04-25 20:19 | 39.81343 | -75.52978 | 3660 ft | 160 kts | 72° |
| 2026-04-25 20:20 | 39.81670 | -75.51610 | 3509 ft | 159 kts | 73° |
| 2026-04-25 20:20 | 39.81879 | -75.50676 | 3414 ft | 159 kts | 73° |
| 2026-04-25 20:20 | 39.82175 | -75.49286 | 3275 ft | 159 kts | 74° |
| 2026-04-25 20:20 | 39.82458 | -75.47903 | 3139 ft | 159 kts | 75° |
| 2026-04-25 20:21 | 39.82736 | -75.46510 | 3136 ft | 158 kts | 75° |
| 2026-04-25 20:21 | 39.83012 | -75.45110 | 3005 ft | 159 kts | 75° |
| 2026-04-25 20:21 | 39.83281 | -75.43733 | 2805 ft | 155 kts | 75° |
| 2026-04-25 20:21 | 39.83619 | -75.42001 | 2523 ft | 145 kts | 75° |
| 2026-04-25 20:22 | 39.83784 | -75.41160 | 2404 ft | 144 kts | 75° |
| 2026-04-25 20:22 | 39.83948 | -75.40321 | 2283 ft | 144 kts | 75° |
| 2026-04-25 20:22 | 39.84283 | -75.38616 | 2035 ft | 144 kts | 75° |
| 2026-04-25 20:22 | 39.84530 | -75.37366 | 1849 ft | 143 kts | 75° |
| 2026-04-25 20:23 | 39.84778 | -75.36108 | 1658 ft | 143 kts | 75° |
| 2026-04-25 20:23 | 39.85024 | -75.34862 | 1466 ft | 142 kts | 76° |
| 2026-04-25 20:23 | 39.85272 | -75.33613 | 1273 ft | 142 kts | 76° |
| 2026-04-25 20:23 | 39.85519 | -75.32361 | 1079 ft | 142 kts | 76° |
| 2026-04-25 20:24 | 39.85767 | -75.31114 | 888 ft | 141 kts | 76° |
| 2026-04-25 20:24 | 39.86013 | -75.29871 | 700 ft | 141 kts | 76° |
| 2026-04-25 20:24 | 39.86256 | -75.28654 | 517 ft | 140 kts | 76° |
| 2026-04-25 20:24 | 39.86501 | -75.27418 | 330 ft | 140 kts | 76° |
| 2026-04-25 20:25 | 39.86747 | -75.26183 | 144 ft | 140 kts | 76° |
| 2026-04-25 20:25 | 39.87060 | -75.24610 | 16 ft | 119 kts | 76° |
| 2026-04-25 20:25 | 39.87165 | -75.24081 | 12 ft | 61 kts | 76° |
| 2026-04-25 20:25 | 39.87203 | -75.23891 | 12 ft | 1 kts | 76° |
| 2026-04-25 20:26 | 39.87242 | -75.23820 | 12 ft | 11 kts | 20° |
| 2026-04-25 20:26 | 39.87317 | -75.23840 | 12 ft | 11 kts | 321° |
| 2026-04-25 20:26 | 39.87379 | -75.23884 | 12 ft | 6 kts | 341° |
| 2026-04-25 20:26 | 39.87393 | -75.23890 | 12 ft | 0 kts | 341° |
| 2026-04-25 20:28 | 39.87393 | -75.23891 | 12 ft | 0 kts | 341° |
| 2026-04-25 20:28 | 39.87479 | -75.23927 | 12 ft | 20 kts | 347° |
| 2026-04-25 20:28 | 39.87583 | -75.23940 | 12 ft | 17 kts | 32° |
| 2026-04-25 20:29 | 39.87595 | -75.23930 | 12 ft | 17 kts | 32° |